sensor_id;sensor_type;location;lat;lon;timestamp;pressure;altitude;pressure_sealevel;temperature;humidity
50394;BME280;36308;46.312;25.288;2023-02-16T00:00:46;97450.22;;;-4.01;61.83
50394;BME280;36308;46.312;25.288;2023-02-16T00:03:18;97457.97;;;-3.99;61.75
50394;BME280;36308;46.312;25.288;2023-02-16T00:05:44;97434.69;;;-4.14;61.90
50394;BME280;36308;46.312;25.288;2023-02-16T00:08:10;97447.28;;;-4.08;61.74
50394;BME280;36308;46.312;25.288;2023-02-16T00:10:37;97446.59;;;-4.10;61.77
50394;BME280;36308;46.312;25.288;2023-02-16T00:13:18;97449.50;;;-4.13;62.13
50394;BME280;36308;46.312;25.288;2023-02-16T00:16:15;97446.81;;;-4.22;61.91
50394;BME280;36308;46.312;25.288;2023-02-16T00:18:41;97460.25;;;-4.16;61.87
50394;BME280;36308;46.312;25.288;2023-02-16T00:21:07;97454.56;;;-4.21;62.06
50394;BME280;36308;46.312;25.288;2023-02-16T00:23:32;97429.59;;;-4.36;61.83
50394;BME280;36308;46.312;25.288;2023-02-16T00:25:58;97453.16;;;-4.25;62.18
50394;BME280;36308;46.312;25.288;2023-02-16T00:28:23;97434.59;;;-4.33;62.08
50394;BME280;36308;46.312;25.288;2023-02-16T00:30:49;97450.78;;;-4.28;62.30
50394;BME280;36308;46.312;25.288;2023-02-16T00:33:19;97428.19;;;-4.40;62.14
50394;BME280;36308;46.312;25.288;2023-02-16T00:35:44;97442.72;;;-4.36;61.93
50394;BME280;36308;46.312;25.288;2023-02-16T00:38:11;97440.91;;;-4.36;62.12
50394;BME280;36308;46.312;25.288;2023-02-16T00:40:37;97436.34;;;-4.43;62.32
50394;BME280;36308;46.312;25.288;2023-02-16T00:43:03;97438.69;;;-4.40;62.02
50394;BME280;36308;46.312;25.288;2023-02-16T00:45:31;97435.34;;;-4.42;62.36
50394;BME280;36308;46.312;25.288;2023-02-16T00:47:57;97435.63;;;-4.45;62.11
50394;BME280;36308;46.312;25.288;2023-02-16T00:50:28;97439.19;;;-4.47;62.34
50394;BME280;36308;46.312;25.288;2023-02-16T00:52:54;97432.31;;;-4.48;62.46
50394;BME280;36308;46.312;25.288;2023-02-16T00:55:23;97434.22;;;-4.50;62.29
50394;BME280;36308;46.312;25.288;2023-02-16T01:00:22;97430.31;;;-4.55;62.62
50394;BME280;36308;46.312;25.288;2023-02-16T01:02:49;97426.28;;;-4.59;62.45
50394;BME280;36308;46.312;25.288;2023-02-16T01:05:16;97422.84;;;-4.60;62.45
50394;BME280;36308;46.312;25.288;2023-02-16T01:07:42;97424.75;;;-4.62;62.42
50394;BME280;36308;46.312;25.288;2023-02-16T01:10:28;97416.41;;;-4.67;62.51
50394;BME280;36308;46.312;25.288;2023-02-16T01:13:13;97390.66;;;-4.83;62.36
50394;BME280;36308;46.312;25.288;2023-02-16T01:15:39;97410.03;;;-4.74;62.28
50394;BME280;36308;46.312;25.288;2023-02-16T01:18:05;97404.06;;;-4.76;62.48
50394;BME280;36308;46.312;25.288;2023-02-16T01:20:31;97411.94;;;-4.76;62.24
50394;BME280;36308;46.312;25.288;2023-02-16T01:22:57;97402.94;;;-4.83;62.07
50394;BME280;36308;46.312;25.288;2023-02-16T01:25:23;97404.16;;;-4.88;62.50
50394;BME280;36308;46.312;25.288;2023-02-16T01:27:48;97406.06;;;-4.90;62.36
50394;BME280;36308;46.312;25.288;2023-02-16T01:30:19;97403.44;;;-4.90;62.04
50394;BME280;36308;46.312;25.288;2023-02-16T01:32:45;97394.28;;;-4.95;62.29
50394;BME280;36308;46.312;25.288;2023-02-16T01:35:20;97389.97;;;-4.96;62.25
50394;BME280;36308;46.312;25.288;2023-02-16T01:37:46;97391.06;;;-4.99;62.45
50394;BME280;36308;46.312;25.288;2023-02-16T01:43:09;97391.34;;;-5.02;62.35
50394;BME280;36308;46.312;25.288;2023-02-16T01:45:39;97388.03;;;-5.04;62.29
50394;BME280;36308;46.312;25.288;2023-02-16T01:48:15;97384.69;;;-5.06;62.68
50394;BME280;36308;46.312;25.288;2023-02-16T01:50:53;97382.41;;;-5.11;62.40
50394;BME280;36308;46.312;25.288;2023-02-16T01:53:25;97383.28;;;-5.10;62.54
50394;BME280;36308;46.312;25.288;2023-02-16T01:56:00;97377.56;;;-5.15;62.62
50394;BME280;36308;46.312;25.288;2023-02-16T02:03:32;97371.03;;;-5.21;62.58
50394;BME280;36308;46.312;25.288;2023-02-16T02:06:36;97367.84;;;-5.24;62.68
50394;BME280;36308;46.312;25.288;2023-02-16T02:09:09;97362.72;;;-5.26;62.57
50394;BME280;36308;46.312;25.288;2023-02-16T02:11:49;97365.00;;;-5.33;62.76
50394;BME280;36308;46.312;25.288;2023-02-16T02:14:22;97358.09;;;-5.34;62.47
50394;BME280;36308;46.312;25.288;2023-02-16T02:16:56;97361.56;;;-5.33;62.43
50394;BME280;36308;46.312;25.288;2023-02-16T02:19:22;97358.34;;;-5.37;62.41
50394;BME280;36308;46.312;25.288;2023-02-16T02:28:25;97358.75;;;-5.41;62.62
50394;BME280;36308;46.312;25.288;2023-02-16T02:31:22;97359.81;;;-5.44;62.51
50394;BME280;36308;46.312;25.288;2023-02-16T02:36:43;97357.44;;;-5.47;62.53
50394;BME280;36308;46.312;25.288;2023-02-16T02:44:39;97349.25;;;-5.54;62.56
50394;BME280;36308;46.312;25.288;2023-02-16T02:47:07;97350.78;;;-5.51;62.73
50394;BME280;36308;46.312;25.288;2023-02-16T02:49:32;97342.22;;;-5.53;62.77
50394;BME280;36308;46.312;25.288;2023-02-16T02:51:58;97353.66;;;-5.54;62.49
50394;BME280;36308;46.312;25.288;2023-02-16T02:54:30;97352.00;;;-5.55;62.82
50394;BME280;36308;46.312;25.288;2023-02-16T03:00:39;97343.91;;;-5.63;62.97
50394;BME280;36308;46.312;25.288;2023-02-16T03:06:05;97349.16;;;-5.63;62.80
50394;BME280;36308;46.312;25.288;2023-02-16T03:08:34;97342.25;;;-5.64;62.69
50394;BME280;36308;46.312;25.288;2023-02-16T03:11:08;97342.63;;;-5.69;62.84
50394;BME280;36308;46.312;25.288;2023-02-16T03:13:57;97338.34;;;-5.70;62.78
50394;BME280;36308;46.312;25.288;2023-02-16T03:16:28;97341.78;;;-5.70;62.57
50394;BME280;36308;46.312;25.288;2023-02-16T03:18:56;97332.53;;;-5.74;62.71
50394;BME280;36308;46.312;25.288;2023-02-16T03:21:41;97336.34;;;-5.78;62.44
50394;BME280;36308;46.312;25.288;2023-02-16T03:24:28;97343.25;;;-5.77;62.58
50394;BME280;36308;46.312;25.288;2023-02-16T03:27:23;97339.22;;;-5.81;62.62
50394;BME280;36308;46.312;25.288;2023-02-16T03:30:10;97341.13;;;-5.83;62.45
50394;BME280;36308;46.312;25.288;2023-02-16T03:32:37;97341.47;;;-5.88;62.43
50394;BME280;36308;46.312;25.288;2023-02-16T03:35:03;97340.06;;;-5.92;62.49
50394;BME280;36308;46.312;25.288;2023-02-16T03:37:29;97334.78;;;-6.01;62.94
50394;BME280;36308;46.312;25.288;2023-02-16T03:39:56;97341.91;;;-6.03;62.84
50394;BME280;36308;46.312;25.288;2023-02-16T03:42:47;97344.75;;;-6.06;63.19
50394;BME280;36308;46.312;25.288;2023-02-16T03:45:13;97337.16;;;-6.10;63.43
50394;BME280;36308;46.312;25.288;2023-02-16T03:47:38;97332.41;;;-6.16;63.34
50394;BME280;36308;46.312;25.288;2023-02-16T03:50:04;97338.59;;;-6.17;63.34
50394;BME280;36308;46.312;25.288;2023-02-16T03:52:30;97337.16;;;-6.21;63.51
50394;BME280;36308;46.312;25.288;2023-02-16T03:54:55;97338.13;;;-6.22;63.75
50394;BME280;36308;46.312;25.288;2023-02-16T03:57:21;97333.97;;;-6.24;63.95
50394;BME280;36308;46.312;25.288;2023-02-16T03:59:46;97297.22;;;-6.45;64.03
50394;BME280;36308;46.312;25.288;2023-02-16T04:02:12;97335.88;;;-6.26;63.89
50394;BME280;36308;46.312;25.288;2023-02-16T04:04:37;97324.47;;;-6.37;64.11
50394;BME280;36308;46.312;25.288;2023-02-16T04:07:02;97323.63;;;-6.37;64.10
50394;BME280;36308;46.312;25.288;2023-02-16T04:09:28;97337.66;;;-6.38;63.85
50394;BME280;36308;46.312;25.288;2023-02-16T04:11:53;97330.03;;;-6.41;64.29
50394;BME280;36308;46.312;25.288;2023-02-16T04:14:37;97332.91;;;-6.44;64.38
50394;BME280;36308;46.312;25.288;2023-02-16T04:17:03;97321.84;;;-6.48;64.10
50394;BME280;36308;46.312;25.288;2023-02-16T04:19:28;97323.84;;;-6.52;64.34
50394;BME280;36308;46.312;25.288;2023-02-16T04:21:54;97330.88;;;-6.52;64.21
50394;BME280;36308;46.312;25.288;2023-02-16T04:24:20;97322.22;;;-6.64;64.31
50394;BME280;36308;46.312;25.288;2023-02-16T04:26:45;97317.94;;;-6.65;64.26
50394;BME280;36308;46.312;25.288;2023-02-16T04:29:13;97333.16;;;-6.59;64.36
50394;BME280;36308;46.312;25.288;2023-02-16T04:31:39;97318.63;;;-6.63;64.48
50394;BME280;36308;46.312;25.288;2023-02-16T04:34:05;97313.66;;;-6.66;64.53
50394;BME280;36308;46.312;25.288;2023-02-16T04:36:30;97288.69;;;-6.81;64.83
50394;BME280;36308;46.312;25.288;2023-02-16T04:38:56;97313.88;;;-6.69;65.17
50394;BME280;36308;46.312;25.288;2023-02-16T04:41:21;97315.78;;;-6.71;64.95
50394;BME280;36308;46.312;25.288;2023-02-16T04:43:47;97319.13;;;-6.69;64.75
50394;BME280;36308;46.312;25.288;2023-02-16T04:46:12;97316.75;;;-6.72;64.64
50394;BME280;36308;46.312;25.288;2023-02-16T04:48:38;97314.97;;;-6.72;65.07
50394;BME280;36308;46.312;25.288;2023-02-16T04:51:04;97321.97;;;-6.72;65.32
50394;BME280;36308;46.312;25.288;2023-02-16T04:53:29;97321.97;;;-6.72;65.18
50394;BME280;36308;46.312;25.288;2023-02-16T04:55:55;97323.63;;;-6.71;65.26
50394;BME280;36308;46.312;25.288;2023-02-16T04:58:20;97312.44;;;-6.73;65.55
50394;BME280;36308;46.312;25.288;2023-02-16T05:00:46;97317.69;;;-6.73;65.44
50394;BME280;36308;46.312;25.288;2023-02-16T05:03:11;97287.50;;;-6.88;65.29
50394;BME280;36308;46.312;25.288;2023-02-16T05:05:37;97314.13;;;-6.72;65.36
50394;BME280;36308;46.312;25.288;2023-02-16T05:08:02;97301.38;;;-6.77;65.47
50394;BME280;36308;46.312;25.288;2023-02-16T05:10:28;97311.53;;;-6.72;65.54
50394;BME280;36308;46.312;25.288;2023-02-16T05:12:54;97314.84;;;-6.70;65.33
50394;BME280;36308;46.312;25.288;2023-02-16T05:15:38;97309.84;;;-6.73;65.26
50394;BME280;36308;46.312;25.288;2023-02-16T05:18:04;97303.66;;;-6.72;65.22
50394;BME280;36308;46.312;25.288;2023-02-16T05:20:29;97319.13;;;-6.69;65.51
50394;BME280;36308;46.312;25.288;2023-02-16T05:23:13;97309.72;;;-6.72;65.24
50394;BME280;36308;46.312;25.288;2023-02-16T05:25:39;97319.38;;;-6.72;65.29
50394;BME280;36308;46.312;25.288;2023-02-16T05:28:04;97324.13;;;-6.66;64.92
50394;BME280;36308;46.312;25.288;2023-02-16T05:30:30;97324.13;;;-6.66;65.30
50394;BME280;36308;46.312;25.288;2023-02-16T05:32:56;97310.56;;;-6.71;65.18
50394;BME280;36308;46.312;25.288;2023-02-16T05:35:22;97314.59;;;-6.67;64.92
50394;BME280;36308;46.312;25.288;2023-02-16T05:37:47;97320.53;;;-6.65;65.25
50394;BME280;36308;46.312;25.288;2023-02-16T05:40:13;97310.91;;;-6.64;65.29
50394;BME280;36308;46.312;25.288;2023-02-16T05:42:38;97315.91;;;-6.61;65.40
50394;BME280;36308;46.312;25.288;2023-02-16T05:45:04;97307.97;;;-6.60;65.71
50394;BME280;36308;46.312;25.288;2023-02-16T05:47:30;97304.38;;;-6.59;65.53
50394;BME280;36308;46.312;25.288;2023-02-16T05:49:55;97312.22;;;-6.59;65.09
50394;BME280;36308;46.312;25.288;2023-02-16T05:52:21;97316.97;;;-6.53;65.43
50394;BME280;36308;46.312;25.288;2023-02-16T05:54:46;97318.63;;;-6.52;65.56
50394;BME280;36308;46.312;25.288;2023-02-16T05:57:12;97319.59;;;-6.53;65.42
50394;BME280;36308;46.312;25.288;2023-02-16T05:59:37;97329.59;;;-6.46;65.32
50394;BME280;36308;46.312;25.288;2023-02-16T06:02:03;97316.25;;;-6.43;65.33
50394;BME280;36308;46.312;25.288;2023-02-16T06:04:28;97323.03;;;-6.41;65.58
50394;BME280;36308;46.312;25.288;2023-02-16T06:06:54;97326.50;;;-6.40;65.73
50394;BME280;36308;46.312;25.288;2023-02-16T06:09:19;97331.97;;;-6.32;65.83
50394;BME280;36308;46.312;25.288;2023-02-16T06:11:45;97319.81;;;-6.33;66.06
50394;BME280;36308;46.312;25.288;2023-02-16T06:14:20;97329.78;;;-6.27;65.68
50394;BME280;36308;46.312;25.288;2023-02-16T06:16:48;97339.44;;;-6.16;65.81
50394;BME280;36308;46.312;25.288;2023-02-16T06:19:16;97331.22;;;-6.12;66.19
50394;BME280;36308;46.312;25.288;2023-02-16T06:21:42;97329.75;;;-6.04;66.50
50394;BME280;36308;46.312;25.288;2023-02-16T06:24:09;97327.47;;;-5.98;66.24
50394;BME280;36308;46.312;25.288;2023-02-16T06:26:35;97330.19;;;-5.88;66.83
50394;BME280;36308;46.312;25.288;2023-02-16T06:29:01;97308.09;;;-5.95;66.65
50394;BME280;36308;46.312;25.288;2023-02-16T06:31:27;97325.88;;;-5.78;66.55
50394;BME280;36308;46.312;25.288;2023-02-16T06:33:53;97326.06;;;-5.70;66.72
50394;BME280;36308;46.312;25.288;2023-02-16T06:36:21;97325.31;;;-5.60;66.45
50394;BME280;36308;46.312;25.288;2023-02-16T06:38:47;97331.84;;;-5.55;66.39
50394;BME280;36308;46.312;25.288;2023-02-16T06:41:12;97321.25;;;-5.53;66.42
50394;BME280;36308;46.312;25.288;2023-02-16T06:43:56;97324.09;;;-5.45;66.26
50394;BME280;36308;46.312;25.288;2023-02-16T06:46:22;97326.09;;;-5.37;66.36
50394;BME280;36308;46.312;25.288;2023-02-16T06:48:47;97332.59;;;-5.32;66.49
50394;BME280;36308;46.312;25.288;2023-02-16T06:51:16;97330.44;;;-5.26;66.71
50394;BME280;36308;46.312;25.288;2023-02-16T06:53:41;97328.25;;;-5.21;66.33
50394;BME280;36308;46.312;25.288;2023-02-16T06:56:07;97322.78;;;-5.18;66.45
50394;BME280;36308;46.312;25.288;2023-02-16T06:58:32;97326.53;;;-5.11;66.52
50394;BME280;36308;46.312;25.288;2023-02-16T07:00:58;97321.75;;;-5.06;66.51
50394;BME280;36308;46.312;25.288;2023-02-16T07:03:23;97314.06;;;-4.98;66.44
50394;BME280;36308;46.312;25.288;2023-02-16T07:05:49;97321.41;;;-4.92;66.63
50394;BME280;36308;46.312;25.288;2023-02-16T07:08:14;97298.06;;;-4.95;66.68
50394;BME280;36308;46.312;25.288;2023-02-16T07:10:44;97321.75;;;-4.75;66.56
50394;BME280;36308;46.312;25.288;2023-02-16T07:13:10;97321.41;;;-4.71;66.87
50394;BME280;36308;46.312;25.288;2023-02-16T07:15:35;97329.28;;;-4.61;66.83
50394;BME280;36308;46.312;25.288;2023-02-16T07:18:01;97334.47;;;-4.50;66.49
50394;BME280;36308;46.312;25.288;2023-02-16T07:20:26;97330.34;;;-4.42;66.34
50394;BME280;36308;46.312;25.288;2023-02-16T07:22:52;97331.75;;;-4.38;66.55
50394;BME280;36308;46.312;25.288;2023-02-16T07:25:18;97319.06;;;-4.33;66.18
50394;BME280;36308;46.312;25.288;2023-02-16T07:27:44;97319.94;;;-4.23;66.39
50394;BME280;36308;46.312;25.288;2023-02-16T07:30:10;97326.19;;;-4.14;66.68
50394;BME280;36308;46.312;25.288;2023-02-16T07:32:36;97327.16;;;-4.06;66.98
50394;BME280;36308;46.312;25.288;2023-02-16T07:35:02;97318.88;;;-4.01;66.29
50394;BME280;36308;46.312;25.288;2023-02-16T07:37:28;97298.72;;;-4.00;66.47
50394;BME280;36308;46.312;25.288;2023-02-16T07:39:54;97316.84;;;-3.78;66.13
50394;BME280;36308;46.312;25.288;2023-02-16T07:42:20;97297.75;;;-3.80;65.89
50394;BME280;36308;46.312;25.288;2023-02-16T07:44:46;97315.06;;;-3.68;65.92
50394;BME280;36308;46.312;25.288;2023-02-16T07:47:11;97307.03;;;-3.66;66.19
50394;BME280;36308;46.312;25.288;2023-02-16T07:49:39;97317.84;;;-3.59;66.10
50394;BME280;36308;46.312;25.288;2023-02-16T07:52:05;97312.72;;;-3.51;66.16
50394;BME280;36308;46.312;25.288;2023-02-16T07:54:31;97294.88;;;-3.48;66.18
50394;BME280;36308;46.312;25.288;2023-02-16T07:56:57;97275.91;;;-3.51;66.15
50394;BME280;36308;46.312;25.288;2023-02-16T07:59:22;97300.97;;;-3.28;66.11
50394;BME280;36308;46.312;25.288;2023-02-16T08:01:48;97307.06;;;-3.17;66.03
50394;BME280;36308;46.312;25.288;2023-02-16T08:04:13;97301.63;;;-3.06;65.97
50394;BME280;36308;46.312;25.288;2023-02-16T08:06:39;97301.44;;;-2.95;66.19
50394;BME280;36308;46.312;25.288;2023-02-16T08:09:05;97281.25;;;-2.94;66.17
50394;BME280;36308;46.312;25.288;2023-02-16T08:11:30;97296.72;;;-2.72;66.08
50394;BME280;36308;46.312;25.288;2023-02-16T08:13:57;97300.81;;;-2.59;65.98
50394;BME280;36308;46.312;25.288;2023-02-16T08:16:25;97297.56;;;-2.44;66.20
50394;BME280;36308;46.312;25.288;2023-02-16T08:18:54;97304.16;;;-2.30;65.84
50394;BME280;36308;46.312;25.288;2023-02-16T08:21:22;97298.00;;;-2.20;65.78
50394;BME280;36308;46.312;25.288;2023-02-16T08:24:02;97304.97;;;-2.01;65.81
50394;BME280;36308;46.312;25.288;2023-02-16T08:26:35;97276.69;;;-1.99;65.74
50394;BME280;36308;46.312;25.288;2023-02-16T08:29:02;97298.25;;;-1.68;65.43
50394;BME280;36308;46.312;25.288;2023-02-16T08:31:29;97299.69;;;-1.56;65.11
50394;BME280;36308;46.312;25.288;2023-02-16T08:33:58;97300.38;;;-1.36;65.48
50394;BME280;36308;46.312;25.288;2023-02-16T08:36:36;97302.16;;;-1.18;65.03
50394;BME280;36308;46.312;25.288;2023-02-16T08:39:13;97229.41;;;-1.47;65.18
50394;BME280;36308;46.312;25.288;2023-02-16T08:41:39;97295.16;;;-0.84;64.29
50394;BME280;36308;46.312;25.288;2023-02-16T08:44:07;97297.25;;;-0.69;64.32
50394;BME280;36308;46.312;25.288;2023-02-16T08:46:35;97286.09;;;-0.55;63.69
50394;BME280;36308;46.312;25.288;2023-02-16T08:49:01;97281.88;;;-0.39;63.79
50394;BME280;36308;46.312;25.288;2023-02-16T08:51:29;97269.03;;;-0.34;63.66
50394;BME280;36308;46.312;25.288;2023-02-16T08:53:56;97283.19;;;-0.09;64.02
50394;BME280;36308;46.312;25.288;2023-02-16T08:56:22;97263.88;;;-0.02;63.23
50394;BME280;36308;46.312;25.288;2023-02-16T08:58:48;97283.78;;;0.19;63.72
50394;BME280;36308;46.312;25.288;2023-02-16T09:01:14;97278.16;;;0.30;63.12
50394;BME280;36308;46.312;25.288;2023-02-16T09:03:41;97279.19;;;0.54;62.76
50394;BME280;36308;46.312;25.288;2023-02-16T09:06:09;97290.66;;;0.71;63.15
50394;BME280;36308;46.312;25.288;2023-02-16T09:08:35;97283.69;;;0.86;62.60
50394;BME280;36308;46.312;25.288;2023-02-16T09:11:10;97282.19;;;1.08;62.39
50394;BME280;36308;46.312;25.288;2023-02-16T09:13:36;97277.34;;;1.28;62.69
50394;BME280;36308;46.312;25.288;2023-02-16T09:16:09;97283.13;;;1.48;62.04
50394;BME280;36308;46.312;25.288;2023-02-16T09:18:36;97282.41;;;1.71;61.00
50394;BME280;36308;46.312;25.288;2023-02-16T09:21:04;97287.28;;;1.90;61.69
50394;BME280;36308;46.312;25.288;2023-02-16T09:23:32;97279.91;;;2.09;61.28
50394;BME280;36308;46.312;25.288;2023-02-16T09:25:58;97288.44;;;2.27;59.98
50394;BME280;36308;46.312;25.288;2023-02-16T09:28:26;97278.06;;;2.40;60.08
50394;BME280;36308;46.312;25.288;2023-02-16T09:30:51;97278.63;;;2.59;59.68
50394;BME280;36308;46.312;25.288;2023-02-16T09:33:18;97282.81;;;2.76;59.82
50394;BME280;36308;46.312;25.288;2023-02-16T09:35:44;97287.31;;;2.99;59.72
50394;BME280;36308;46.312;25.288;2023-02-16T09:38:09;97275.03;;;3.13;58.86
50394;BME280;36308;46.312;25.288;2023-02-16T09:40:36;97275.38;;;3.33;57.68
50394;BME280;36308;46.312;25.288;2023-02-16T09:43:11;97267.56;;;3.46;58.04
50394;BME280;36308;46.312;25.288;2023-02-16T09:45:44;97260.81;;;3.58;56.62
50394;BME280;36308;46.312;25.288;2023-02-16T09:48:26;97265.19;;;3.81;56.30
50394;BME280;36308;46.312;25.288;2023-02-16T09:50:56;97262.44;;;3.89;56.20
50394;BME280;36308;46.312;25.288;2023-02-16T09:53:35;97264.53;;;4.09;56.26
50394;BME280;36308;46.312;25.288;2023-02-16T09:59:54;97264.72;;;4.43;55.94
50394;BME280;36308;46.312;25.288;2023-02-16T10:06:18;97258.16;;;4.82;55.19
50394;BME280;36308;46.312;25.288;2023-02-16T10:08:15;97259.16;;;5.03;55.30
50394;BME280;36308;46.312;25.288;2023-02-16T10:10:51;97253.53;;;5.19;54.19
50394;BME280;36308;46.312;25.288;2023-02-16T10:16:04;97245.16;;;5.51;53.55
50394;BME280;36308;46.312;25.288;2023-02-16T10:18:36;97242.13;;;5.60;53.07
50394;BME280;36308;46.312;25.288;2023-02-16T10:21:12;97231.09;;;5.70;53.57
50394;BME280;36308;46.312;25.288;2023-02-16T10:23:44;97231.56;;;5.87;53.14
50394;BME280;36308;46.312;25.288;2023-02-16T10:29:06;97220.84;;;6.15;52.09
50394;BME280;36308;46.312;25.288;2023-02-16T10:31:54;97221.09;;;6.27;51.94
50394;BME280;36308;46.312;25.288;2023-02-16T10:34:47;97218.69;;;6.45;51.94
50394;BME280;36308;46.312;25.288;2023-02-16T10:42:57;97198.78;;;6.95;50.91
50394;BME280;36308;46.312;25.288;2023-02-16T10:45:36;97202.91;;;7.04;50.99
50394;BME280;36308;46.312;25.288;2023-02-16T10:48:08;97175.34;;;6.97;49.84
50394;BME280;36308;46.312;25.288;2023-02-16T10:50:56;97200.84;;;7.19;50.03
50394;BME280;36308;46.312;25.288;2023-02-16T10:53:35;97193.63;;;7.26;49.62
50394;BME280;36308;46.312;25.288;2023-02-16T10:56:36;97187.47;;;7.33;49.40
50394;BME280;36308;46.312;25.288;2023-02-16T10:59:13;97190.53;;;7.43;49.13
50394;BME280;36308;46.312;25.288;2023-02-16T11:01:43;97185.97;;;7.50;48.78
50394;BME280;36308;46.312;25.288;2023-02-16T11:04:30;97183.06;;;7.58;49.26
50394;BME280;36308;46.312;25.288;2023-02-16T11:07:10;97173.75;;;7.67;49.31
50394;BME280;36308;46.312;25.288;2023-02-16T11:09:37;97185.47;;;7.80;48.97
50394;BME280;36308;46.312;25.288;2023-02-16T11:12:32;97186.28;;;7.87;49.06
50394;BME280;36308;46.312;25.288;2023-02-16T11:15:23;97172.19;;;7.98;48.27
50394;BME280;36308;46.312;25.288;2023-02-16T11:23:27;97163.19;;;8.31;48.38
50394;BME280;36308;46.312;25.288;2023-02-16T11:25:54;97156.72;;;8.45;48.54
50394;BME280;36308;46.312;25.288;2023-02-16T11:28:46;97158.09;;;8.55;47.77
50394;BME280;36308;46.312;25.288;2023-02-16T11:33:57;97147.63;;;8.78;47.34
50394;BME280;36308;46.312;25.288;2023-02-16T11:36:31;97146.75;;;8.84;47.40
50394;BME280;36308;46.312;25.288;2023-02-16T11:41:53;97133.22;;;8.98;47.35
50394;BME280;36308;46.312;25.288;2023-02-16T11:47:21;97126.09;;;9.10;46.94
50394;BME280;36308;46.312;25.288;2023-02-16T11:50:06;97131.09;;;9.25;46.71
50394;BME280;36308;46.312;25.288;2023-02-16T11:52:31;97105.31;;;9.24;46.84
50394;BME280;36308;46.312;25.288;2023-02-16T11:54:59;97119.09;;;9.46;46.62
50394;BME280;36308;46.312;25.288;2023-02-16T11:57:33;97121.50;;;9.54;46.19
50394;BME280;36308;46.312;25.288;2023-02-16T12:00:12;97117.69;;;9.62;46.30
50394;BME280;36308;46.312;25.288;2023-02-16T12:05:51;97110.44;;;9.81;46.32
50394;BME280;36308;46.312;25.288;2023-02-16T12:26:51;97098.16;;;10.03;45.60
50394;BME280;36308;46.312;25.288;2023-02-16T12:40:40;97090.31;;;10.86;44.23
50394;BME280;36308;46.312;25.288;2023-02-16T12:43:00;97080.13;;;11.00;44.33
50394;BME280;36308;46.312;25.288;2023-02-16T12:45:34;97069.47;;;11.05;43.72
50394;BME280;36308;46.312;25.288;2023-02-16T12:50:55;97065.13;;;11.27;43.47
50394;BME280;36308;46.312;25.288;2023-02-16T12:56:20;97070.97;;;11.24;42.14
50394;BME280;36308;46.312;25.288;2023-02-16T12:58:50;97062.94;;;11.12;42.04
50394;BME280;36308;46.312;25.288;2023-02-16T13:01:24;97052.75;;;11.03;42.57
50394;BME280;36308;46.312;25.288;2023-02-16T13:03:55;97044.81;;;10.84;42.89
50394;BME280;36308;46.312;25.288;2023-02-16T13:06:36;97056.88;;;10.94;42.63
50394;BME280;36308;46.312;25.288;2023-02-16T13:12:25;97053.47;;;10.86;42.74
50394;BME280;36308;46.312;25.288;2023-02-16T13:15:10;97044.22;;;10.82;43.43
50394;BME280;36308;46.312;25.288;2023-02-16T13:17:49;97047.72;;;10.83;41.97
50394;BME280;36308;46.312;25.288;2023-02-16T13:20:19;97040.84;;;10.75;42.49
50394;BME280;36308;46.312;25.288;2023-02-16T13:40:22;97027.50;;;10.15;43.20
50394;BME280;36308;46.312;25.288;2023-02-16T13:43:12;97019.56;;;10.08;43.08
50394;BME280;36308;46.312;25.288;2023-02-16T13:45:44;97028.19;;;9.98;42.96
50394;BME280;36308;46.312;25.288;2023-02-16T13:48:21;97019.03;;;9.87;43.29
50394;BME280;36308;46.312;25.288;2023-02-16T13:50:58;97027.56;;;9.84;43.55
50394;BME280;36308;46.312;25.288;2023-02-16T13:53:25;97012.66;;;9.70;43.64
50394;BME280;36308;46.312;25.288;2023-02-16T13:56:21;97031.31;;;9.65;43.34
50394;BME280;36308;46.312;25.288;2023-02-16T14:01:49;97025.03;;;9.41;43.18
50394;BME280;36308;46.312;25.288;2023-02-16T14:07:29;97009.63;;;9.18;43.68
50394;BME280;36308;46.312;25.288;2023-02-16T14:12:15;97013.13;;;9.00;44.29
50394;BME280;36308;46.312;25.288;2023-02-16T14:19:57;96994.91;;;8.65;45.13
50394;BME280;36308;46.312;25.288;2023-02-16T14:22:47;97009.97;;;8.66;45.30
50394;BME280;36308;46.312;25.288;2023-02-16T14:25:35;97016.22;;;8.60;45.36
50394;BME280;36308;46.312;25.288;2023-02-16T14:28:05;97012.34;;;8.56;46.09
50394;BME280;36308;46.312;25.288;2023-02-16T14:31:02;97016.91;;;8.48;45.75
50394;BME280;36308;46.312;25.288;2023-02-16T14:33:39;97017.38;;;8.45;45.79
50394;BME280;36308;46.312;25.288;2023-02-16T14:36:19;97012.88;;;8.39;46.67
50394;BME280;36308;46.312;25.288;2023-02-16T14:38:49;96996.59;;;8.34;46.74
50394;BME280;36308;46.312;25.288;2023-02-16T14:43:49;97003.09;;;8.26;46.56
50394;BME280;36308;46.312;25.288;2023-02-16T14:49:59;96998.25;;;8.10;46.96
50394;BME280;36308;46.312;25.288;2023-02-16T14:52:41;96991.31;;;8.02;46.45
50394;BME280;36308;46.312;25.288;2023-02-16T15:05:33;96985.97;;;7.32;47.69
50394;BME280;36308;46.312;25.288;2023-02-16T15:08:19;96979.09;;;7.11;47.60
50394;BME280;36308;46.312;25.288;2023-02-16T15:10:49;96978.72;;;7.01;47.78
50394;BME280;36308;46.312;25.288;2023-02-16T15:13:28;96972.59;;;6.80;48.21
50394;BME280;36308;46.312;25.288;2023-02-16T15:15:56;96964.88;;;6.59;48.68
50394;BME280;36308;46.312;25.288;2023-02-16T15:18:32;96980.91;;;6.59;49.09
50394;BME280;36308;46.312;25.288;2023-02-16T15:20:58;96936.19;;;6.21;49.27
50394;BME280;36308;46.312;25.288;2023-02-16T15:23:29;96976.63;;;6.31;49.37
50394;BME280;36308;46.312;25.288;2023-02-16T15:26:05;96962.06;;;6.14;49.48
50394;BME280;36308;46.312;25.288;2023-02-16T15:28:38;96973.16;;;6.04;49.76
50394;BME280;36308;46.312;25.288;2023-02-16T15:31:12;96957.09;;;5.77;49.99
50394;BME280;36308;46.312;25.288;2023-02-16T15:33:52;96967.97;;;5.76;49.63
50394;BME280;36308;46.312;25.288;2023-02-16T15:36:22;96950.50;;;5.46;49.87
50394;BME280;36308;46.312;25.288;2023-02-16T15:41:31;96971.59;;;5.35;50.34
50394;BME280;36308;46.312;25.288;2023-02-16T15:43:58;96970.34;;;5.24;50.32
50394;BME280;36308;46.312;25.288;2023-02-16T15:46:34;96977.06;;;5.13;50.48